Time;durP1;ratioP1;P1;durP2;ratioP2;P2;SDS_P1;SDS_P2;PMS_P1;PMS_P2;Temp;Humidity;BMP_temperature;BMP_pressure;BME280_temperature;BME280_humidity;BME280_pressure;Samples;Min_cycle;Max_cycle;Signal;HPM_P1;HPM_P2
2021/09/25 00:00:30;;;;;;;;;21.00;17.67;;;;;15.33;72.54;101341.56;4962269;28;45414;-70
2021/09/25 00:03:00;;;;;;;;;23.33;21.67;;;;;15.30;72.42;101348.91;4976044;28;45685;-70
2021/09/25 00:05:30;;;;;;;;;21.33;21.33;;;;;15.29;72.47;101348.03;4966649;28;45490;-71
2021/09/25 00:07:56;;;;;;;;;21.00;21.00;;;;;15.26;72.49;101348.31;4962723;28;45622;-71
2021/09/25 00:10:23;;;;;;;;;25.67;21.67;;;;;15.26;72.38;101347.50;4973086;28;45464;-72
2021/09/25 00:12:49;;;;;;;;;25.00;20.33;;;;;15.22;72.60;101338.97;4962354;28;45449;-71
2021/09/25 00:15:16;;;;;;;;;21.67;18.67;;;;;15.16;72.98;101334.19;4973123;28;45302;-70
2021/09/25 00:17:42;;;;;;;;;21.00;18.33;;;;;15.17;72.91;101338.50;4964114;28;45448;-72
2021/09/25 00:20:09;;;;;;;;;28.00;23.00;;;;;15.17;72.77;101341.16;4961755;28;45552;-71
2021/09/25 00:22:34;;;;;;;;;20.00;20.00;;;;;15.17;72.66;101349.09;4963035;28;45443;-70
2021/09/25 00:25:01;;;;;;;;;22.67;19.00;;;;;15.17;72.92;101349.09;4959751;28;46653;-70
2021/09/25 00:27:27;;;;;;;;;25.00;21.00;;;;;15.16;72.90;101342.13;4961227;28;45418;-72
2021/09/25 00:29:52;;;;;;;;;26.00;23.00;;;;;15.15;72.68;101337.78;4965752;28;45390;-71
2021/09/25 00:32:17;;;;;;;;;22.33;21.67;;;;;15.14;72.74;101338.75;4963173;28;45580;-71
2021/09/25 00:34:43;;;;;;;;;25.67;22.33;;;;;15.12;73.00;101338.06;4962639;28;46085;-72
2021/09/25 00:37:08;;;;;;;;;19.33;17.67;;;;;15.07;72.56;101332.31;4959531;28;45414;-72
2021/09/25 00:39:33;;;;;;;;;25.00;19.33;;;;;15.07;73.06;101342.91;4960640;28;45390;-70
2021/09/25 00:41:59;;;;;;;;;21.33;20.00;;;;;15.04;73.07;101329.91;4962502;28;45650;-72
2021/09/25 00:44:25;;;;;;;;;21.00;19.00;;;;;15.05;73.17;101335.09;4962871;28;47110;-71
2021/09/25 00:46:50;;;;;;;;;25.00;19.33;;;;;15.05;72.99;101336.88;4962831;28;45489;-71
2021/09/25 00:49:18;;;;;;;;;21.33;18.33;;;;;15.00;72.94;101332.81;4961576;28;45388;-70
2021/09/25 00:51:43;;;;;;;;;26.67;22.00;;;;;15.00;73.02;101332.81;4981371;28;45524;-71
2021/09/25 00:54:09;;;;;;;;;24.67;20.67;;;;;14.98;73.24;101329.47;4958526;28;46987;-70
2021/09/25 00:56:35;;;;;;;;;25.67;22.33;;;;;14.96;73.39;101335.88;4962765;28;45477;-71
2021/09/25 00:59:01;;;;;;;;;24.00;22.00;;;;;14.92;73.28;101340.56;4967192;28;45769;-71
2021/09/25 01:01:27;;;;;;;;;25.33;22.00;;;;;14.90;73.57;101339.00;4981472;28;45484;-71
2021/09/25 01:03:52;;;;;;;;;24.67;21.67;;;;;14.89;73.35;101340.81;4963682;28;47083;-71
2021/09/25 01:06:17;;;;;;;;;20.33;18.00;;;;;14.91;73.46;101338.06;4973365;28;45222;-70
2021/09/25 01:08:43;;;;;;;;;26.00;21.67;;;;;14.91;73.33;101340.69;4960292;28;45502;-70
2021/09/25 01:11:08;;;;;;;;;29.00;23.00;;;;;14.89;73.32;101335.50;4959477;28;45506;-70
2021/09/25 01:13:33;;;;;;;;;23.67;20.33;;;;;14.91;73.47;101338.88;4958345;28;47066;-71
2021/09/25 01:15:59;;;;;;;;;22.67;18.00;;;;;14.91;73.49;101332.75;4959109;28;47942;-70
2021/09/25 01:18:24;;;;;;;;;21.33;16.67;;;;;14.89;73.18;101324.94;4956870;28;45292;-71
2021/09/25 01:20:50;;;;;;;;;26.00;23.00;;;;;14.89;73.59;101326.75;4973456;28;45288;-71
2021/09/25 01:23:15;;;;;;;;;28.33;20.00;;;;;14.87;73.58;101321.59;4967716;28;47141;-71
2021/09/25 01:25:41;;;;;;;;;24.00;22.00;;;;;14.84;73.47;101321.81;4959877;28;45429;-70
2021/09/25 01:28:06;;;;;;;;;21.00;17.67;;;;;14.82;73.82;101318.50;4973836;28;45309;-70
2021/09/25 01:30:31;;;;;;;;;24.33;21.33;;;;;14.81;73.76;101317.63;4957796;28;45571;-71
2021/09/25 01:32:58;;;;;;;;;23.33;21.33;;;;;14.81;73.78;101317.63;4959243;28;47024;-71
2021/09/25 01:35:23;;;;;;;;;22.00;19.67;;;;;14.81;74.00;101311.50;4962322;28;45519;-70
2021/09/25 01:37:52;;;;;;;;;24.67;22.00;;;;;14.76;73.80;101298.66;4960986;28;45513;-71
2021/09/25 01:40:19;;;;;;;;;21.33;19.33;;;;;14.71;74.11;101310.59;4961320;28;45575;-70
2021/09/25 01:42:45;;;;;;;;;20.33;19.00;;;;;14.68;74.09;101303.75;4957520;28;46079;-71
2021/09/25 01:45:12;;;;;;;;;19.00;16.33;;;;;14.63;74.26;101296.16;4961027;28;45414;-69
2021/09/25 01:47:41;;;;;;;;;25.33;19.00;;;;;14.63;74.42;101309.38;4962499;28;45628;-71
2021/09/25 01:50:10;;;;;;;;;22.33;20.00;;;;;14.64;74.44;101307.63;4963077;28;45596;-71
2021/09/25 01:52:35;;;;;;;;;24.67;20.67;;;;;14.63;73.72;101306.72;4961189;28;46146;-70
2021/09/25 01:55:01;;;;;;;;;27.00;24.33;;;;;14.62;74.26;101302.44;4973061;28;45434;-70
2021/09/25 01:57:26;;;;;;;;;22.33;21.67;;;;;14.65;74.45;101302.19;4958424;28;45271;-70
2021/09/25 01:59:52;;;;;;;;;22.00;21.00;;;;;14.65;74.31;101296.91;4961354;28;45569;-70
2021/09/25 02:02:18;;;;;;;;;22.00;19.67;;;;;14.67;74.35;101300.28;4957264;28;45489;-70
2021/09/25 02:04:47;;;;;;;;;27.00;20.33;;;;;14.67;74.25;101294.13;4958785;28;45604;-70
2021/09/25 02:07:18;;;;;;;;;24.33;21.67;;;;;14.65;74.21;101291.63;4958820;28;45437;-70
2021/09/25 02:09:45;;;;;;;;;27.33;22.33;;;;;14.65;74.09;101290.81;4956836;28;45367;-71
2021/09/25 02:12:11;;;;;;;;;19.33;18.00;;;;;14.64;74.16;101289.13;4960980;28;46014;-70
2021/09/25 02:14:37;;;;;;;;;23.67;22.33;;;;;14.59;74.14;101281.53;4961383;28;45533;-70
2021/09/25 02:17:03;;;;;;;;;27.33;20.00;;;;;14.57;74.39;101282.59;4960040;28;45471;-71
2021/09/25 02:19:28;;;;;;;;;22.00;20.67;;;;;14.51;74.22;101283.97;4966002;28;45482;-70
2021/09/25 02:21:54;;;;;;;;;25.67;23.67;;;;;14.50;74.23;101283.13;4962135;28;45381;-70
2021/09/25 02:24:20;;;;;;;;;22.67;20.00;;;;;14.52;74.63;101288.28;4970047;28;45287;-71
2021/09/25 02:26:45;;;;;;;;;24.67;22.67;;;;;14.49;74.21;101281.44;4972237;28;45604;-70
2021/09/25 02:29:10;;;;;;;;;23.33;19.67;;;;;14.47;74.54;101274.63;4963822;28;45394;-71
2021/09/25 02:31:36;;;;;;;;;31.33;24.00;;;;;14.48;74.46;101289.50;4961673;28;45464;-70
2021/09/25 02:34:02;;;;;;;;;23.33;20.00;;;;;14.48;74.62;101289.50;4958809;28;45650;-68
2021/09/25 02:36:28;;;;;;;;;23.00;20.33;;;;;14.46;74.68;101286.97;4959973;28;45504;-70
2021/09/25 02:38:53;;;;;;;;;23.33;19.33;;;;;14.46;74.38;101283.50;4975214;28;45453;-70
2021/09/25 02:41:18;;;;;;;;;30.33;24.33;;;;;14.44;74.63;101286.28;4962316;28;46279;-69
2021/09/25 02:43:44;;;;;;;;;24.67;21.67;;;;;14.42;74.76;101287.38;4958106;28;45394;-71
2021/09/25 02:46:09;;;;;;;;;24.00;22.00;;;;;14.38;74.82;101280.66;4958217;28;45466;-71
2021/09/25 02:48:35;;;;;;;;;22.00;21.33;;;;;14.34;74.85;101280.06;4965369;28;45490;-70
2021/09/25 02:51:00;;;;;;;;;23.00;20.67;;;;;14.29;74.84;101275.13;4967776;28;45528;-71
2021/09/25 02:53:26;;;;;;;;;29.67;24.00;;;;;14.25;74.91;101272.88;4966460;28;45387;-71
2021/09/25 02:55:51;;;;;;;;;22.33;20.67;;;;;14.22;75.00;101273.97;4964119;28;46269;-70
2021/09/25 02:58:17;;;;;;;;;14.33;12.00;;;;;14.20;75.12;101270.59;4972178;28;45537;-70
2021/09/25 03:00:43;;;;;;;;;24.33;18.67;;;;;14.18;74.87;101267.25;4957930;28;46254;-71
2021/09/25 03:03:08;;;;;;;;;25.33;23.00;;;;;14.18;74.86;101259.34;4957137;28;45414;-69
2021/09/25 03:05:34;;;;;;;;;28.67;21.00;;;;;14.18;75.28;101267.25;4958276;28;45303;-70
2021/09/25 03:07:59;;;;;;;;;8.67;8.67;;;;;14.15;75.33;101263.06;4958407;28;45344;-70
2021/09/25 03:10:24;;;;;;;;;22.67;22.00;;;;;14.13;75.40;101264.16;4957686;28;45398;-71
2021/09/25 03:12:50;;;;;;;;;25.67;24.00;;;;;14.08;75.34;101261.03;4957639;28;45240;-70
2021/09/25 03:15:15;;;;;;;;;28.33;24.67;;;;;14.03;75.63;101267.50;4956160;28;45351;-71
2021/09/25 03:17:40;;;;;;;;;20.67;20.67;;;;;13.98;75.54;101269.69;4957778;28;45469;-70
2021/09/25 03:20:08;;;;;;;;;32.33;25.33;;;;;13.96;75.67;101274.25;4957556;28;47005;-70
2021/09/25 03:22:33;;;;;;;;;22.33;21.00;;;;;13.95;75.77;101269.13;4960648;28;45731;-70
2021/09/25 03:24:59;;;;;;;;;24.33;19.67;;;;;13.94;75.71;101265.63;4956065;28;45405;-71
2021/09/25 03:27:25;;;;;;;;;31.33;26.00;;;;;13.93;75.84;101266.56;4958802;28;45469;-71
2021/09/25 03:29:51;;;;;;;;;26.33;22.00;;;;;13.91;75.74;101265.00;4960475;28;46154;-69
2021/09/25 03:32:17;;;;;;;;;24.67;22.67;;;;;13.91;75.81;101265.88;4959918;28;45454;-70
2021/09/25 03:34:43;;;;;;;;;27.00;26.00;;;;;13.88;75.43;101258.16;4968946;28;45437;-70
2021/09/25 03:37:10;;;;;;;;;29.33;22.67;;;;;13.83;75.90;101253.28;4957637;28;45550;-71
2021/09/25 03:39:35;;;;;;;;;29.67;26.67;;;;;13.80;76.07;101250.03;4962338;28;45437;-71
2021/09/25 03:42:00;;;;;;;;;27.67;25.33;;;;;13.74;76.28;101243.44;4963660;28;45334;-71
2021/09/25 03:44:26;;;;;;;;;21.33;21.00;;;;;13.70;76.25;101237.56;4965600;28;45362;-71
2021/09/25 03:46:56;;;;;;;;;27.67;21.67;;;;;13.65;76.39;101236.28;4966853;28;45475;-71
2021/09/25 03:49:21;;;;;;;;;29.00;24.67;;;;;13.64;76.41;101243.31;4964160;28;46831;-71
2021/09/25 03:51:47;;;;;;;;;27.33;22.67;;;;;13.61;76.43;101243.59;4962321;28;45389;-71
2021/09/25 03:54:12;;;;;;;;;25.33;22.00;;;;;13.59;76.68;101256.06;4964155;28;45424;-70
2021/09/25 03:56:38;;;;;;;;;24.33;22.33;;;;;13.61;76.60;101248.88;4964092;28;45413;-70
2021/09/25 03:59:03;;;;;;;;;25.67;23.33;;;;;13.66;76.45;101251.97;4964063;28;46481;-70
2021/09/25 04:01:28;;;;;;;;;28.67;24.67;;;;;13.70;76.22;101253.41;4962671;28;45669;-70
2021/09/25 04:03:55;;;;;;;;;29.67;24.33;;;;;13.75;76.33;101250.41;4960010;28;45469;-70
2021/09/25 04:06:23;;;;;;;;;27.33;23.00;;;;;13.78;76.18;101254.63;4963291;28;45397;-69
2021/09/25 04:08:49;;;;;;;;;30.00;25.00;;;;;13.76;75.98;101253.88;4961477;28;47105;-69
2021/09/25 04:11:14;;;;;;;;;29.67;21.33;;;;;13.77;76.05;101258.22;4965915;28;46015;-70
2021/09/25 04:13:39;;;;;;;;;21.00;21.00;;;;;13.74;76.02;101247.88;4979406;28;45405;-69
2021/09/25 04:16:05;;;;;;;;;21.00;20.00;;;;;13.75;75.88;101252.19;4961104;28;45528;-70
2021/09/25 04:18:30;;;;;;;;;24.00;21.67;;;;;13.72;75.98;101249.81;4963625;28;46098;-70
2021/09/25 04:20:55;;;;;;;;;23.00;23.00;;;;;13.72;76.12;101258.56;4961268;28;45354;-71
2021/09/25 04:23:21;;;;;;;;;28.00;23.33;;;;;13.68;75.89;101242.13;4970535;28;45556;-69
2021/09/25 04:25:46;;;;;;;;;32.00;28.33;;;;;13.70;76.26;101242.03;4968719;28;45502;-71
2021/09/25 04:28:11;;;;;;;;;24.00;23.67;;;;;13.68;75.99;101236.00;4960821;28;47204;-70
2021/09/25 04:30:39;;;;;;;;;24.00;23.33;;;;;13.64;76.25;101238.06;4959215;28;45619;-71
2021/09/25 04:33:07;;;;;;;;;23.00;20.33;;;;;13.58;76.14;101235.88;4962886;28;45320;-70
2021/09/25 04:35:33;;;;;;;;;24.00;22.00;;;;;13.56;76.41;101242.25;4963575;28;45386;-70
2021/09/25 04:37:59;;;;;;;;;29.33;26.00;;;;;13.57;76.57;101246.56;4963541;28;46028;-70
2021/09/25 04:40:26;;;;;;;;;33.33;25.00;;;;;13.55;76.60;101244.06;4963139;28;45477;-71
2021/09/25 04:42:51;;;;;;;;;33.33;26.33;;;;;13.55;76.44;101241.41;4960712;28;45360;-70
2021/09/25 04:45:17;;;;;;;;;26.50;24.00;;;;;13.52;76.58;101241.69;4958455;28;45376;-70
2021/09/25 04:47:45;;;;;;;;;27.00;23.33;;;;;13.46;76.47;101235.06;4970758;28;45406;-70
2021/09/25 04:50:12;;;;;;;;;26.67;22.67;;;;;13.44;76.72;101231.72;4967594;28;45532;-71
2021/09/25 04:52:38;;;;;;;;;30.00;24.00;;;;;13.42;76.77;101236.25;4964008;28;45533;-71
2021/09/25 04:55:04;;;;;;;;;30.00;28.00;;;;;13.41;76.67;101233.75;4958848;28;45502;-71
2021/09/25 04:57:30;;;;;;;;;29.00;28.33;;;;;13.40;77.04;101229.44;4960924;28;45709;-70
2021/09/25 04:59:55;;;;;;;;;24.67;23.33;;;;;13.40;77.07;101237.34;4963129;28;45404;-71
2021/09/25 05:02:21;;;;;;;;;27.00;24.33;;;;;13.41;76.94;101241.66;4964390;28;48121;-71
2021/09/25 05:04:46;;;;;;;;;27.00;25.33;;;;;13.42;77.00;101246.00;4963241;28;45334;-69
2021/09/25 05:07:11;;;;;;;;;31.00;26.00;;;;;13.42;76.80;101246.00;4961863;28;45943;-71
2021/09/25 05:09:37;;;;;;;;;28.33;23.33;;;;;13.40;76.87;101248.75;4960624;28;45418;-70
2021/09/25 05:12:02;;;;;;;;;33.33;25.67;;;;;13.41;76.72;101236.38;4973192;28;45409;-69
2021/09/25 05:14:28;;;;;;;;;24.00;21.00;;;;;13.41;76.86;101237.22;4962607;28;45389;-69
2021/09/25 05:16:54;;;;;;;;;25.33;24.00;;;;;13.40;76.66;101234.69;4959707;28;46076;-70
2021/09/25 05:19:19;;;;;;;;;24.67;22.33;;;;;13.40;76.65;101237.34;4960146;28;45417;-71
2021/09/25 05:21:44;;;;;;;;;29.00;26.00;;;;;13.39;76.81;101233.00;4958836;28;45304;-70
2021/09/25 05:24:10;;;;;;;;;32.67;28.00;;;;;13.36;76.73;101240.22;4958622;28;45462;-70
2021/09/25 05:26:35;;;;;;;;;30.00;28.33;;;;;13.29;77.00;101228.44;4959891;28;45573;-69
2021/09/25 05:29:03;;;;;;;;;33.67;26.67;;;;;13.23;76.95;101228.91;4962848;28;45351;-70
2021/09/25 05:31:30;;;;;;;;;31.67;24.67;;;;;13.21;77.05;101228.19;4962817;28;45508;-72
2021/09/25 05:33:57;;;;;;;;;33.00;26.33;;;;;13.18;77.54;101226.63;4959687;28;45549;-70
2021/09/25 05:36:24;;;;;;;;;28.00;25.33;;;;;13.15;77.13;101231.31;4957246;28;45457;-69
2021/09/25 05:38:49;;;;;;;;;30.00;27.67;;;;;13.15;76.99;101236.56;4959456;28;45357;-70
2021/09/25 05:41:15;;;;;;;;;30.00;24.00;;;;;13.15;76.88;101233.94;4966424;28;45523;-70
2021/09/25 05:43:40;;;;;;;;;27.00;24.00;;;;;13.14;77.09;101234.88;4966147;28;45418;-70
2021/09/25 05:46:06;;;;;;;;;31.00;24.67;;;;;13.12;76.89;101232.38;4960046;28;46186;-71
2021/09/25 05:48:33;;;;;;;;;33.00;25.00;;;;;13.10;77.26;101228.19;4958807;28;45386;-70
2021/09/25 05:50:59;;;;;;;;;29.00;27.33;;;;;13.08;77.48;101230.09;4966604;28;45327;-71
2021/09/25 05:53:24;;;;;;;;;34.33;29.00;;;;;13.09;77.42;101231.75;4963881;28;45255;-70
2021/09/25 05:55:50;;;;;;;;;31.00;25.00;;;;;13.08;77.36;101236.22;4960503;28;45540;-70
2021/09/25 05:58:15;;;;;;;;;31.67;29.33;;;;;13.09;77.19;101237.03;4961150;28;45670;-70
2021/09/25 06:00:40;;;;;;;;;33.33;27.67;;;;;13.10;77.44;101230.81;4961547;28;45473;-70
2021/09/25 06:03:06;;;;;;;;;35.00;29.00;;;;;13.14;77.58;101240.16;4973363;28;45481;-71
2021/09/25 06:05:31;;;;;;;;;35.00;29.00;;;;;13.17;77.39;101230.22;4969821;28;46397;-72
2021/09/25 06:07:57;;;;;;;;;34.00;30.00;;;;;13.21;77.28;101229.03;4971400;28;45273;-70
2021/09/25 06:10:22;;;;;;;;;35.33;27.67;;;;;13.25;77.12;101236.72;4959290;28;45390;-70
2021/09/25 06:12:48;;;;;;;;;35.33;27.00;;;;;13.26;77.31;101235.75;4957590;28;45255;-74
2021/09/25 06:15:13;;;;;;;;;31.00;28.67;;;;;13.26;77.29;101241.88;4960636;28;47106;-69
2021/09/25 06:17:39;;;;;;;;;39.33;28.67;;;;;13.29;77.33;101232.88;4960700;28;46797;-70
2021/09/25 06:20:05;;;;;;;;;31.33;27.33;;;;;13.28;77.17;101236.47;4963880;28;45340;-69
2021/09/25 06:22:30;;;;;;;;;26.67;24.67;;;;;13.28;77.31;101239.94;4961643;28;45398;-69
2021/09/25 06:24:56;;;;;;;;;29.00;26.00;;;;;13.30;77.21;101245.13;4957471;28;46051;-69
2021/09/25 06:27:21;;;;;;;;;33.67;27.00;;;;;13.34;76.96;101246.56;4958910;28;45449;-70
2021/09/25 06:29:47;;;;;;;;;29.33;27.33;;;;;13.39;76.90;101248.84;4974073;28;45477;-70
2021/09/25 06:32:12;;;;;;;;;29.67;26.00;;;;;13.41;76.86;101246.94;4969904;28;45492;-69
2021/09/25 06:34:37;;;;;;;;;31.33;24.33;;;;;13.44;76.83;101246.69;4970676;28;46143;-69
2021/09/25 06:37:03;;;;;;;;;29.67;26.33;;;;;13.48;76.89;101246.34;4966977;28;45472;-70
2021/09/25 06:39:28;;;;;;;;;32.00;28.00;;;;;13.52;76.81;101244.31;4964070;28;45433;-71
2021/09/25 06:41:54;;;;;;;;;31.67;25.33;;;;;13.54;76.38;101237.09;4973963;28;45550;-70
2021/09/25 06:44:19;;;;;;;;;30.33;27.00;;;;;13.58;76.71;101237.69;4968717;28;46123;-70
2021/09/25 06:46:45;;;;;;;;;31.67;27.00;;;;;13.64;76.52;101242.50;4966554;28;45754;-70
2021/09/25 06:49:10;;;;;;;;;31.00;27.33;;;;;13.68;76.54;101238.66;4965927;28;45373;-70
2021/09/25 06:51:35;;;;;;;;;32.67;27.33;;;;;13.71;75.86;101230.47;4958958;28;45341;-70
2021/09/25 06:54:01;;;;;;;;;32.00;26.00;;;;;13.72;76.04;101223.41;4958923;28;46662;-71
2021/09/25 06:56:26;;;;;;;;;38.67;24.33;;;;;13.74;75.96;101229.41;4966663;28;46726;-72
2021/09/25 06:58:52;;;;;;;;;35.00;31.00;;;;;13.76;75.75;101230.94;4974047;28;45379;-76
2021/09/25 07:01:17;;;;;;;;;34.33;29.00;;;;;13.85;76.53;101224.09;4970717;28;45344;-75
2021/09/25 07:03:42;;;;;;;;;31.67;28.33;;;;;13.92;75.74;101220.03;4974744;28;47785;-75
2021/09/25 07:06:08;;;;;;;;;34.00;29.33;;;;;13.98;75.70;101223.97;4957914;28;45459;-76
2021/09/25 07:08:33;;;;;;;;;36.00;29.00;;;;;14.03;75.47;101217.31;4966270;28;45329;-75
2021/09/25 07:10:59;;;;;;;;;31.00;28.00;;;;;14.07;75.54;101211.81;4968836;28;45578;-75
2021/09/25 07:13:24;;;;;;;;;30.00;27.33;;;;;14.12;75.32;101214.91;4971382;28;45465;-75
2021/09/25 07:15:50;;;;;;;;;26.67;24.33;;;;;14.17;75.13;101213.56;4961771;28;45410;-75
2021/09/25 07:18:16;;;;;;;;;37.33;28.00;;;;;14.25;75.11;101220.88;4966086;28;45339;-77
2021/09/25 07:20:43;;;;;;;;;31.33;27.67;;;;;14.32;74.95;101229.97;4961989;28;45453;-76
2021/09/25 07:23:09;;;;;;;;;32.33;27.00;;;;;14.40;74.92;101223.22;4964199;28;46180;-77
2021/09/25 07:25:36;;;;;;;;;33.33;29.33;;;;;14.53;74.45;101229.19;4963704;28;45484;-77
2021/09/25 07:28:04;;;;;;;;;31.67;30.33;;;;;14.61;74.36;101221.44;4977787;28;45565;-74
2021/09/25 07:30:30;;;;;;;;;35.33;29.00;;;;;14.67;74.02;101220.09;4945747;28;45325;-75
2021/09/25 07:32:57;;;;;;;;;41.67;33.00;;;;;14.72;73.73;101217.09;4965041;28;46371;-75
2021/09/25 07:35:27;;;;;;;;;31.00;28.67;;;;;14.77;73.86;101212.25;4962534;28;45430;-75
2021/09/25 07:37:52;;;;;;;;;34.00;30.00;;;;;14.80;73.56;101219.91;4962695;28;45524;-78
2021/09/25 07:40:18;;;;;;;;;36.00;31.33;;;;;14.85;73.50;101212.44;4963084;28;45508;-76
2021/09/25 07:42:43;;;;;;;;;36.33;29.00;;;;;14.89;73.44;101219.13;4961681;28;46442;-77
2021/09/25 07:45:11;;;;;;;;;29.33;27.33;;;;;14.96;73.32;101214.19;4960344;28;45461;-76
2021/09/25 07:47:36;;;;;;;;;29.67;24.33;;;;;15.01;73.08;101214.63;4961273;28;45417;-75
2021/09/25 07:50:04;;;;;;;;;26.33;26.33;;;;;15.04;73.00;101208.22;4971978;28;45395;-76
2021/09/25 07:52:30;;;;;;;;;32.67;28.33;;;;;15.09;73.10;101198.06;4974969;28;48162;-77
2021/09/25 07:54:55;;;;;;;;;32.00;27.00;;;;;15.10;72.76;101184.72;4975959;28;45571;-76
2021/09/25 07:57:20;;;;;;;;;33.67;30.00;;;;;15.13;72.58;101189.75;4959642;28;45260;-76
2021/09/25 07:59:46;;;;;;;;;35.33;31.33;;;;;15.18;72.42;101198.13;4962639;28;45334;-76
2021/09/25 08:02:11;;;;;;;;;35.00;28.67;;;;;15.22;72.42;101196.06;4962402;28;45600;-75
2021/09/25 08:04:37;;;;;;;;;35.67;30.00;;;;;15.24;72.55;101196.75;4964580;28;45370;-75
2021/09/25 08:07:02;;;;;;;;;37.67;28.33;;;;;15.30;72.45;101196.22;4959420;28;49140;-75
2021/09/25 08:09:27;;;;;;;;;42.67;31.33;;;;;15.33;72.38;101195.97;4961921;28;45319;-75
2021/09/25 08:11:56;;;;;;;;;35.67;31.67;;;;;15.39;72.14;101199.88;4963395;28;48443;-77
2021/09/25 08:14:21;;;;;;;;;39.00;32.33;;;;;15.43;72.39;101187.22;4965055;28;45369;-76
2021/09/25 08:16:47;;;;;;;;;35.33;30.00;;;;;15.52;72.24;101189.06;4964034;28;45386;-76
2021/09/25 08:19:12;;;;;;;;;35.33;32.00;;;;;15.58;71.72;101188.53;4964087;28;45498;-77
2021/09/25 08:21:58;;;;;;;;;31.00;29.00;;;;;15.66;71.38;101196.63;4964199;28;46940;-77
2021/09/25 08:24:24;;;;;;;;;33.00;29.33;;;;;15.86;71.58;101206.47;4960356;28;45438;-75
2021/09/25 08:26:49;;;;;;;;;33.67;30.00;;;;;16.09;71.06;101210.53;4964330;28;45795;-73
2021/09/25 08:29:14;;;;;;;;;31.00;28.67;;;;;16.37;70.29;101215.13;4964501;28;45475;-75
2021/09/25 08:31:40;;;;;;;;;36.33;30.00;;;;;16.61;70.09;101198.78;4963241;28;46497;-73
2021/09/25 08:34:06;;;;;;;;;30.33;25.67;;;;;16.85;69.45;101195.66;4960638;28;45506;-75
2021/09/25 08:36:31;;;;;;;;;31.67;29.33;;;;;17.00;68.88;101185.47;4961449;28;45362;-75
2021/09/25 08:38:56;;;;;;;;;19.00;19.00;;;;;17.14;68.63;101192.13;4964339;28;45438;-75
2021/09/25 08:41:22;;;;;;;;;27.67;27.00;;;;;17.19;68.47;101181.91;4963827;28;45411;-74
2021/09/25 08:43:50;;;;;;;;;26.67;26.33;;;;;17.20;68.31;101180.91;4964310;28;45351;-74
2021/09/25 08:46:15;;;;;;;;;30.67;29.00;;;;;17.19;67.60;101187.22;4959614;28;45342;-76
2021/09/25 08:48:41;;;;;;;;;34.33;30.00;;;;;17.19;67.87;101189.88;4975373;28;45335;-75
2021/09/25 08:51:07;;;;;;;;;30.00;25.33;;;;;17.13;67.81;101191.28;4958580;28;48547;-74
2021/09/25 08:53:32;;;;;;;;;30.67;26.33;;;;;17.08;67.74;101198.00;4960660;28;45410;-75
2021/09/25 08:55:58;;;;;;;;;33.67;29.00;;;;;17.04;67.86;101196.63;4964575;28;45437;-74
2021/09/25 08:58:23;;;;;;;;;34.00;29.00;;;;;16.98;68.06;101190.06;4963255;28;45514;-75
2021/09/25 09:00:51;;;;;;;;;30.00;26.33;;;;;16.98;67.95;101188.25;4959259;28;46253;-75
2021/09/25 09:03:20;;;;;;;;;25.67;19.00;;;;;17.01;67.95;101191.59;4962506;28;45452;-74
2021/09/25 09:05:46;;;;;;;;;29.67;25.33;;;;;16.98;68.06;101193.56;4963944;28;45331;-75
2021/09/25 09:08:12;;;;;;;;;27.33;25.33;;;;;17.04;68.21;101192.16;4968916;28;45328;-74
2021/09/25 09:10:38;;;;;;;;;35.67;26.33;;;;;17.09;68.11;101194.38;4972186;28;46037;-74
2021/09/25 09:13:05;;;;;;;;;35.33;32.67;;;;;17.15;67.91;101199.94;4959746;28;45391;-74
2021/09/25 09:15:31;;;;;;;;;30.00;25.00;;;;;17.23;67.95;101193.03;4959899;28;45483;-74
2021/09/25 09:18:00;;;;;;;;;29.00;26.33;;;;;17.32;67.71;101195.66;4962172;28;45461;-74
2021/09/25 09:20:26;;;;;;;;;34.67;27.67;;;;;17.42;67.46;101194.78;4962713;28;46303;-74
2021/09/25 09:23:14;;;;;;;;;28.67;26.00;;;;;17.51;67.71;101201.84;4963213;28;45873;-75
2021/09/25 09:25:40;;;;;;;;;30.00;22.33;;;;;17.61;67.34;101205.31;4963089;28;45718;-75
2021/09/25 09:28:13;;;;;;;;;28.67;26.00;;;;;17.75;67.13;101211.94;4959926;28;45615;-74
2021/09/25 09:30:47;;;;;;;;;32.33;27.33;;;;;17.85;66.71;101198.59;4974659;28;46477;-74
2021/09/25 09:33:38;;;;;;;;;29.00;25.67;;;;;17.97;66.35;101200.06;4957659;28;45442;-74
2021/09/25 09:36:23;;;;;;;;;26.67;21.67;;;;;18.17;66.62;101197.25;4961101;28;45485;-73
2021/09/25 09:38:55;;;;;;;;;25.67;23.33;;;;;18.37;66.34;101189.13;4962135;28;45371;-74
2021/09/25 09:41:43;;;;;;;;;25.67;24.67;;;;;18.55;65.85;101178.44;4962062;28;45453;-74
2021/09/25 09:44:15;;;;;;;;;32.00;26.33;;;;;18.72;65.34;101177.59;4962022;28;45470;-73
2021/09/25 09:46:59;;;;;;;;;21.33;20.00;;;;;18.90;65.06;101171.38;4961485;28;45500;-73
2021/09/25 09:49:36;;;;;;;;;25.33;22.67;;;;;19.06;64.56;101158.16;4959292;28;45596;-75
2021/09/25 09:52:03;;;;;;;;;24.00;22.33;;;;;19.23;63.93;101153.75;4959019;28;45672;-74
2021/09/25 09:54:34;;;;;;;;;26.00;24.33;;;;;19.35;63.75;101158.78;4956759;28;47807;-72
2021/09/25 09:57:02;;;;;;;;;23.67;20.33;;;;;19.43;63.26;101164.13;4958759;28;45416;-74
2021/09/25 09:59:28;;;;;;;;;26.67;26.33;;;;;19.50;63.05;101165.16;4958918;28;45536;-76
2021/09/25 10:01:54;;;;;;;;;30.67;24.33;;;;;19.61;62.91;101169.34;4961593;28;45376;-74
2021/09/25 10:04:20;;;;;;;;;29.33;25.67;;;;;19.74;62.87;101168.88;4960822;28;45428;-73
2021/09/25 10:06:47;;;;;;;;;28.67;23.00;;;;;19.87;62.69;101169.25;4958423;28;45778;-73
2021/09/25 10:09:18;;;;;;;;;27.00;21.67;;;;;20.00;62.75;101159.97;4960733;28;45391;-74
2021/09/25 10:11:47;;;;;;;;;22.00;18.00;;;;;20.13;61.56;101162.13;4961203;28;46340;-74
2021/09/25 10:14:21;;;;;;;;;25.67;21.33;;;;;20.25;62.02;101161.63;4961266;28;45469;-75
2021/09/25 10:16:48;;;;;;;;;23.67;19.67;;;;;20.38;61.65;101157.59;4961279;28;45317;-75
2021/09/25 10:19:17;;;;;;;;;25.33;20.33;;;;;20.51;61.01;101157.94;4959800;28;45580;-73
2021/09/25 10:21:45;;;;;;;;;20.67;19.00;;;;;20.60;60.79;101162.25;4957959;28;46215;-73
2021/09/25 10:24:22;;;;;;;;;19.67;19.67;;;;;20.70;61.24;101166.63;4960557;28;45336;-73
2021/09/25 10:26:48;;;;;;;;;24.33;19.00;;;;;20.80;60.14;101159.25;4961778;28;45391;-73
2021/09/25 10:29:23;;;;;;;;;19.67;19.00;;;;;20.87;59.80;101160.22;4961202;28;45573;-74
2021/09/25 10:31:49;;;;;;;;;17.33;16.67;;;;;20.95;59.89;101164.69;4961275;28;45662;-75
2021/09/25 10:34:27;;;;;;;;;20.33;19.00;;;;;21.02;59.99;101155.00;4960020;28;45311;-73
2021/09/25 10:36:55;;;;;;;;;18.67;16.33;;;;;21.12;59.53;101154.81;4974561;28;45256;-73
2021/09/25 10:39:28;;;;;;;;;20.67;19.33;;;;;21.13;59.01;101151.13;4960889;28;45458;-73
2021/09/25 10:42:21;;;;;;;;;22.67;19.00;;;;;21.27;59.03;101153.06;4961263;28;47086;-73
2021/09/25 10:44:50;;;;;;;;;17.33;17.33;;;;;21.34;58.65;101147.03;4958408;28;45370;-73
2021/09/25 10:47:25;;;;;;;;;19.67;18.33;;;;;21.41;58.34;101138.13;4960120;28;45370;-74
2021/09/25 10:49:57;;;;;;;;;20.00;18.00;;;;;21.49;57.86;101128.41;4961461;28;45429;-73
2021/09/25 10:52:40;;;;;;;;;16.00;16.00;;;;;21.57;57.90;101131.06;4958583;28;46048;-74
2021/09/25 10:55:26;;;;;;;;;20.00;17.67;;;;;21.62;57.31;101133.22;4958636;28;45416;-74
2021/09/25 10:58:14;;;;;;;;;15.00;14.33;;;;;21.61;56.84;101123.53;4956961;28;45359;-73
2021/09/25 11:01:03;;;;;;;;;20.33;14.67;;;;;21.61;56.69;101123.53;4972522;28;45368;-75
2021/09/25 11:03:43;;;;;;;;;13.33;12.33;;;;;21.57;56.48;101118.50;4971903;28;46609;-75
2021/09/25 11:06:25;;;;;;;;;19.33;17.00;;;;;21.56;56.48;101114.19;4957625;28;45319;-75
2021/09/25 11:09:07;;;;;;;;;11.33;11.33;;;;;21.55;56.69;101101.84;4958505;28;45529;-73